Time;durP1;ratioP1;P1;durP2;ratioP2;P2;SDS_P1;SDS_P2;PMS_P1;PMS_P2;Temp;Humidity;BMP_temperature;BMP_pressure;BME280_temperature;BME280_humidity;BME280_pressure;Samples;Min_cycle;Max_cycle;Signal;HPM_P1;HPM_P2
2023/05/23 00:00:32;;;;;;;32.50;23.40;;;;;;;;;;6164856;23;20434;-91
2023/05/23 00:03:01;;;;;;;40.00;24.47;;;;;;;;;;6166125;23;20386;-93
2023/05/23 00:05:28;;;;;;;38.40;25.73;;;;;;;;;;6191203;23;20906;-92
2023/05/23 00:07:54;;;;;;;41.33;26.93;;;;;;;;;;6166819;23;20380;-92
2023/05/23 00:10:20;;;;;;;54.40;29.53;;;;;;;;;;6164248;23;20383;-93
2023/05/23 00:12:46;;;;;;;43.07;28.70;;;;;;;;;;6165339;23;20384;-93
2023/05/23 00:15:12;;;;;;;48.80;27.50;;;;;;;;;;6165257;23;20894;-91
2023/05/23 00:17:38;;;;;;;43.07;27.20;;;;;;;;;;6165272;23;20376;-93
2023/05/23 00:20:10;;;;;;;46.40;28.80;;;;;;;;;;6166154;23;20902;-93
2023/05/23 00:22:41;;;;;;;46.77;27.70;;;;;;;;;;6167005;23;20365;-94
2023/05/23 00:25:10;;;;;;;44.13;29.30;;;;;;;;;;6166013;23;20383;-94
2023/05/23 00:27:36;;;;;;;48.37;32.00;;;;;;;;;;6167901;23;20368;-92
2023/05/23 00:30:02;;;;;;;56.07;31.63;;;;;;;;;;6166204;23;20446;-93
2023/05/23 00:32:28;;;;;;;49.23;30.00;;;;;;;;;;6166355;23;20384;-93
2023/05/23 00:34:56;;;;;;;50.93;29.90;;;;;;;;;;6166188;23;20384;-94
2023/05/23 00:37:22;;;;;;;52.53;29.13;;;;;;;;;;6166231;23;20891;-93
2023/05/23 00:39:48;;;;;;;58.03;30.37;;;;;;;;;;6165501;23;20380;-92
2023/05/23 00:42:14;;;;;;;56.57;32.33;;;;;;;;;;6165621;23;20451;-93
2023/05/23 00:44:40;;;;;;;48.73;32.07;;;;;;;;;;6166397;23;20376;-93
2023/05/23 00:47:06;;;;;;;47.87;29.63;;;;;;;;;;6166011;23;20381;-93
2023/05/23 00:49:32;;;;;;;55.40;32.60;;;;;;;;;;6165849;23;20376;-93
2023/05/23 00:51:59;;;;;;;58.63;34.07;;;;;;;;;;6165302;23;20391;-93
2023/05/23 00:54:30;;;;;;;60.30;35.60;;;;;;;;;;6166903;23;20384;-93
2023/05/23 00:56:56;;;;;;;52.27;32.70;;;;;;;;;;6167281;23;20451;-94
2023/05/23 00:59:25;;;;;;;57.07;33.57;;;;;;;;;;6137873;23;20408;-92
2023/05/23 01:01:51;;;;;;;58.67;32.77;;;;;;;;;;6112164;23;20788;-93
2023/05/23 01:04:20;;;;;;;54.30;32.80;;;;;;;;;;6112030;23;20468;-93
2023/05/23 01:06:47;;;;;;;59.07;34.23;;;;;;;;;;6109059;23;20381;-92
2023/05/23 01:09:15;;;;;;;64.47;35.27;;;;;;;;;;6111198;23;20385;-92
2023/05/23 01:12:03;;;;;;;63.20;33.77;;;;;;;;;;6110847;23;20799;-93
2023/05/23 01:14:34;;;;;;;63.43;36.60;;;;;;;;;;6108200;23;20385;-94
2023/05/23 01:17:02;;;;;;;57.30;33.70;;;;;;;;;;6109956;23;20380;-94
2023/05/23 01:19:47;;;;;;;62.57;37.60;;;;;;;;;;6110098;23;20389;-92
2023/05/23 01:22:32;;;;;;;64.37;34.70;;;;;;;;;;6132208;23;20952;-93
2023/05/23 01:25:13;;;;;;;61.67;34.97;;;;;;;;;;6110252;23;20381;-93
2023/05/23 01:27:44;;;;;;;62.67;34.53;;;;;;;;;;6110425;23;20424;-93
2023/05/23 01:30:11;;;;;;;59.47;34.60;;;;;;;;;;6131364;23;20391;-93
2023/05/23 01:32:36;;;;;;;69.73;37.00;;;;;;;;;;6164598;23;20410;-93
2023/05/23 01:35:03;;;;;;;71.30;37.50;;;;;;;;;;6164305;23;20416;-94
2023/05/23 01:37:29;;;;;;;63.27;38.70;;;;;;;;;;6163317;23;20390;-92
2023/05/23 01:39:54;;;;;;;75.10;42.07;;;;;;;;;;6163953;23;20455;-92
2023/05/23 01:42:20;;;;;;;83.93;44.77;;;;;;;;;;6168627;23;20428;-93
2023/05/23 01:44:47;;;;;;;75.13;37.33;;;;;;;;;;6166427;23;20439;-93
2023/05/23 01:47:16;;;;;;;72.47;39.63;;;;;;;;;;6165584;23;20404;-94
2023/05/23 01:49:43;;;;;;;80.73;41.00;;;;;;;;;;6166312;23;20404;-93
2023/05/23 01:52:09;;;;;;;64.37;37.80;;;;;;;;;;6166062;23;20418;-94
2023/05/23 01:54:36;;;;;;;73.10;39.20;;;;;;;;;;6166238;23;20439;-94
2023/05/23 01:57:02;;;;;;;61.83;38.07;;;;;;;;;;6166145;23;20699;-94
2023/05/23 01:59:28;;;;;;;77.27;41.03;;;;;;;;;;6165802;23;20410;-93
2023/05/23 02:01:54;;;;;;;69.50;42.73;;;;;;;;;;6165957;23;20412;-94
2023/05/23 02:04:26;;;;;;;75.27;43.97;;;;;;;;;;6168082;23;20371;-94
2023/05/23 02:06:52;;;;;;;79.30;42.33;;;;;;;;;;6167056;23;20372;-94
2023/05/23 02:09:18;;;;;;;82.57;44.27;;;;;;;;;;6166283;23;20708;-94
2023/05/23 02:11:45;;;;;;;72.20;43.23;;;;;;;;;;6164301;23;20380;-94
2023/05/23 02:14:11;;;;;;;77.57;41.27;;;;;;;;;;6165745;23;20368;-93
2023/05/23 02:16:37;;;;;;;78.10;43.23;;;;;;;;;;6165764;23;20388;-94
2023/05/23 02:19:03;;;;;;;77.97;44.07;;;;;;;;;;6165776;23;20395;-95
2023/05/23 02:21:30;;;;;;;71.20;41.93;;;;;;;;;;6164426;23;20424;-95
2023/05/23 02:23:56;;;;;;;72.43;40.43;;;;;;;;;;6165785;23;20382;-95
2023/05/23 02:26:22;;;;;;;85.23;43.70;;;;;;;;;;6166417;23;20466;-93
2023/05/23 02:28:48;;;;;;;79.60;41.17;;;;;;;;;;6167469;23;20387;-94
2023/05/23 02:31:16;;;;;;;92.50;44.37;;;;;;;;;;6166752;23;20387;-93
2023/05/23 02:33:41;;;;;;;75.27;42.63;;;;;;;;;;6166717;23;20391;-93
2023/05/23 02:36:14;;;;;;;70.20;42.13;;;;;;;;;;6165857;23;20384;-94
2023/05/23 02:38:40;;;;;;;81.90;43.40;;;;;;;;;;6168587;23;20376;-94
2023/05/23 02:41:06;;;;;;;83.40;41.10;;;;;;;;;;6165603;23;20419;-94
2023/05/23 02:43:32;;;;;;;82.20;43.27;;;;;;;;;;6165965;23;20870;-95
2023/05/23 02:45:58;;;;;;;77.47;44.37;;;;;;;;;;6165400;23;20360;-93
2023/05/23 02:48:24;;;;;;;79.70;41.40;;;;;;;;;;6165513;23;20882;-93
2023/05/23 02:50:50;;;;;;;74.90;46.37;;;;;;;;;;6135143;23;20458;-92
2023/05/23 02:53:16;;;;;;;78.00;43.87;;;;;;;;;;6109444;23;20389;-94
2023/05/23 02:55:42;;;;;;;78.50;44.40;;;;;;;;;;6111189;23;20381;-93
2023/05/23 02:58:08;;;;;;;75.20;41.57;;;;;;;;;;6112307;23;20381;-94
2023/05/23 03:00:34;;;;;;;69.00;42.20;;;;;;;;;;6110906;23;20433;-94
2023/05/23 03:03:01;;;;;;;66.23;42.40;;;;;;;;;;6110880;23;20381;-94
2023/05/23 03:05:27;;;;;;;71.37;42.57;;;;;;;;;;6111849;23;20448;-93
2023/05/23 03:07:53;;;;;;;64.20;42.33;;;;;;;;;;6109951;23;20381;-94
2023/05/23 03:10:19;;;;;;;76.17;40.37;;;;;;;;;;6111638;23;20383;-93
2023/05/23 03:12:46;;;;;;;72.07;42.87;;;;;;;;;;6111653;23;20713;-93
2023/05/23 03:15:12;;;;;;;68.43;41.60;;;;;;;;;;6110561;23;20385;-93
2023/05/23 03:17:38;;;;;;;74.20;42.00;;;;;;;;;;6111196;23;20399;-93
2023/05/23 03:20:08;;;;;;;69.87;42.53;;;;;;;;;;6112747;23;20779;-95
2023/05/23 03:22:34;;;;;;;67.20;40.13;;;;;;;;;;6160425;23;20364;-95
2023/05/23 03:25:03;;;;;;;66.53;39.23;;;;;;;;;;6172675;23;20383;-96
2023/05/23 03:27:29;;;;;;;65.47;42.93;;;;;;;;;;6172544;23;20372;-95
2023/05/23 03:29:55;;;;;;;58.00;38.83;;;;;;;;;;6172187;23;20407;-95
2023/05/23 03:32:21;;;;;;;62.10;38.77;;;;;;;;;;6165986;23;21109;-91
2023/05/23 03:34:48;;;;;;;58.73;37.50;;;;;;;;;;6173109;23;20383;-95
2023/05/23 03:37:16;;;;;;;65.40;40.40;;;;;;;;;;6169949;23;20394;-95
2023/05/23 03:39:42;;;;;;;58.20;39.50;;;;;;;;;;6174596;23;20408;-95
2023/05/23 03:42:08;;;;;;;66.00;42.90;;;;;;;;;;6172505;23;20531;-95
2023/05/23 03:44:34;;;;;;;61.13;38.90;;;;;;;;;;6169937;23;20388;-94
2023/05/23 03:47:05;;;;;;;59.97;38.30;;;;;;;;;;6173542;23;20379;-96
2023/05/23 03:49:32;;;;;;;53.33;35.50;;;;;;;;;;6170250;23;20379;-96
2023/05/23 03:51:58;;;;;;;60.70;38.20;;;;;;;;;;6169508;23;20388;-95
2023/05/23 03:54:24;;;;;;;66.17;36.93;;;;;;;;;;6168991;23;20459;-95
2023/05/23 03:56:52;;;;;;;58.17;34.97;;;;;;;;;;6169521;23;20376;-94
2023/05/23 03:59:18;;;;;;;58.03;37.73;;;;;;;;;;6166673;23;20396;-95
2023/05/23 04:01:44;;;;;;;55.73;36.27;;;;;;;;;;6166899;23;20427;-95
2023/05/23 04:04:10;;;;;;;64.00;37.70;;;;;;;;;;6161491;23;20395;-95
2023/05/23 04:06:37;;;;;;;61.90;35.47;;;;;;;;;;6164916;23;20375;-95
2023/05/23 04:09:04;;;;;;;61.30;38.53;;;;;;;;;;6165862;23;20391;-94
2023/05/23 04:11:32;;;;;;;64.73;38.67;;;;;;;;;;6171297;23;20383;-96
2023/05/23 04:13:58;;;;;;;56.37;36.07;;;;;;;;;;6166763;23;20934;-95
2023/05/23 04:16:24;;;;;;;51.80;36.10;;;;;;;;;;6168846;23;20392;-96
2023/05/23 04:18:50;;;;;;;51.37;36.00;;;;;;;;;;6170386;23;20908;-96
2023/05/23 04:21:16;;;;;;;53.50;35.40;;;;;;;;;;6173096;23;20467;-96
2023/05/23 04:23:42;;;;;;;55.20;35.00;;;;;;;;;;6172844;23;20376;-95
2023/05/23 04:26:09;;;;;;;52.73;34.80;;;;;;;;;;6166614;23;20747;-95
2023/05/23 04:28:36;;;;;;;56.10;36.03;;;;;;;;;;6167344;23;20752;-95
2023/05/23 04:31:02;;;;;;;53.77;37.33;;;;;;;;;;6134953;23;20408;-94
2023/05/23 04:33:29;;;;;;;53.73;37.50;;;;;;;;;;6112124;23;20384;-94
2023/05/23 04:35:56;;;;;;;57.70;35.80;;;;;;;;;;6110736;23;20849;-94
2023/05/23 04:38:24;;;;;;;51.90;36.90;;;;;;;;;;6137078;23;20448;-94
2023/05/23 04:40:51;;;;;;;57.63;36.83;;;;;;;;;;6110619;23;20480;-95
2023/05/23 04:43:19;;;;;;;57.50;34.20;;;;;;;;;;6114975;23;20444;-95
2023/05/23 04:45:48;;;;;;;58.57;36.40;;;;;;;;;;6113352;23;20381;-96
2023/05/23 04:48:16;;;;;;;51.40;34.03;;;;;;;;;;6077301;23;20371;-94
2023/05/23 04:50:42;;;;;;;52.97;35.83;;;;;;;;;;6078440;23;20418;-94
2023/05/23 04:53:08;;;;;;;50.10;33.70;;;;;;;;;;6075460;23;20426;-94
2023/05/23 04:55:34;;;;;;;45.83;31.67;;;;;;;;;;6075277;23;20986;-93
2023/05/23 04:58:02;;;;;;;52.40;33.63;;;;;;;;;;6075440;23;20526;-91
2023/05/23 05:00:29;;;;;;;52.67;35.13;;;;;;;;;;6077073;23;20434;-91
2023/05/23 05:02:55;;;;;;;50.17;32.87;;;;;;;;;;6080181;23;20386;-92
2023/05/23 05:05:21;;;;;;;54.00;34.00;;;;;;;;;;6082500;23;20386;-92
2023/05/23 05:07:47;;;;;;;52.07;34.33;;;;;;;;;;6080555;23;20378;-92
2023/05/23 05:10:15;;;;;;;52.93;34.20;;;;;;;;;;6077992;23;20389;-93
2023/05/23 05:12:43;;;;;;;52.40;32.23;;;;;;;;;;6080571;23;20596;-92
2023/05/23 05:15:09;;;;;;;50.23;34.47;;;;;;;;;;6083746;23;20465;-92
2023/05/23 05:17:36;;;;;;;50.50;32.13;;;;;;;;;;6080095;23;20829;-92
2023/05/23 05:20:07;;;;;;;46.73;33.43;;;;;;;;;;6082164;23;20408;-94
2023/05/23 05:22:43;;;;;;;46.47;32.17;;;;;;;;;;6108920;23;20369;-94
2023/05/23 05:25:12;;;;;;;56.60;37.20;;;;;;;;;;6089310;23;20361;-95
2023/05/23 05:27:38;;;;;;;44.97;31.50;;;;;;;;;;6083345;23;20465;-92
2023/05/23 05:30:06;;;;;;;50.60;36.20;;;;;;;;;;6082489;23;20509;-92
2023/05/23 05:32:35;;;;;;;48.90;34.53;;;;;;;;;;6081240;23;20378;-92
2023/05/23 05:35:01;;;;;;;46.63;32.20;;;;;;;;;;6083126;23;20372;-92
2023/05/23 05:37:27;;;;;;;54.20;34.00;;;;;;;;;;6087078;23;20413;-91
2023/05/23 05:39:53;;;;;;;46.23;34.97;;;;;;;;;;6164552;23;20371;-91
2023/05/23 05:42:20;;;;;;;50.40;35.17;;;;;;;;;;6162485;23;20435;-92
2023/05/23 05:44:46;;;;;;;52.10;36.40;;;;;;;;;;6166119;23;20456;-92
2023/05/23 05:47:15;;;;;;;54.10;35.80;;;;;;;;;;6164493;23;20380;-92
2023/05/23 05:49:41;;;;;;;48.73;34.90;;;;;;;;;;6165819;23;20381;-94
2023/05/23 05:52:07;;;;;;;45.60;34.07;;;;;;;;;;6135348;23;20653;-92
2023/05/23 05:54:33;;;;;;;43.70;32.40;;;;;;;;;;6133750;23;20373;-93
2023/05/23 05:56:59;;;;;;;47.70;33.57;;;;;;;;;;6111322;23;20420;-93
2023/05/23 05:59:25;;;;;;;46.17;33.23;;;;;;;;;;6111464;23;20412;-93
2023/05/23 06:01:52;;;;;;;45.73;33.17;;;;;;;;;;6110847;23;20428;-93
2023/05/23 06:04:18;;;;;;;44.83;35.40;;;;;;;;;;6109943;23;20396;-92
2023/05/23 06:06:44;;;;;;;45.03;33.20;;;;;;;;;;6109804;23;20399;-90
2023/05/23 06:09:27;;;;;;;48.03;35.73;;;;;;;;;;6138189;23;20381;-93
2023/05/23 06:12:29;;;;;;;;;;;;;;;;;;;;;
2023/05/23 06:15:17;;;;;;;49.13;35.20;;;;;;;;;;6052923;23;20412;-96
2023/05/23 06:23:19;;;;;;;47.23;32.77;;;;;;;;;;6191826;23;21494;-95
2023/05/23 06:25:45;;;;;;;47.13;33.60;;;;;;;;;;6109522;23;20429;-95
2023/05/23 06:28:14;;;;;;;45.50;35.40;;;;;;;;;;6087639;23;20413;-95
2023/05/23 06:30:40;;;;;;;55.33;35.77;;;;;;;;;;6089294;23;20382;-95
2023/05/23 06:33:08;;;;;;;45.33;33.53;;;;;;;;;;6087592;23;20373;-96
2023/05/23 06:35:37;;;;;;;48.23;31.43;;;;;;;;;;6089763;23;20425;-95
2023/05/23 06:38:03;;;;;;;45.03;33.10;;;;;;;;;;6089780;23;20393;-95
2023/05/23 06:40:31;;;;;;;48.87;33.63;;;;;;;;;;6089272;23;20526;-96
2023/05/23 06:42:58;;;;;;;46.73;34.03;;;;;;;;;;6087926;23;20370;-95
2023/05/23 06:45:26;;;;;;;41.83;30.83;;;;;;;;;;6090472;23;20381;-95
2023/05/23 06:47:52;;;;;;;42.60;31.90;;;;;;;;;;6086927;23;20402;-95
2023/05/23 06:50:21;;;;;;;44.33;33.30;;;;;;;;;;6128713;23;20388;-95
2023/05/23 06:52:48;;;;;;;40.17;32.23;;;;;;;;;;6169580;23;20383;-95
2023/05/23 06:55:26;;;;;;;42.87;29.80;;;;;;;;;;6177327;23;20380;-95
2023/05/23 06:58:02;;;;;;;39.30;30.37;;;;;;;;;;6168372;23;20423;-95
2023/05/23 07:00:30;;;;;;;41.40;29.90;;;;;;;;;;6169904;23;20383;-95
2023/05/23 07:02:59;;;;;;;43.17;33.33;;;;;;;;;;6170806;23;20395;-95
2023/05/23 07:05:35;;;;;;;46.67;34.60;;;;;;;;;;6173532;23;20474;-94
2023/05/23 07:08:04;;;;;;;41.43;29.90;;;;;;;;;;6194546;23;20390;-95
2023/05/23 07:10:40;;;;;;;37.53;30.10;;;;;;;;;;6140101;23;20399;-95
2023/05/23 07:13:06;;;;;;;47.90;30.73;;;;;;;;;;6119336;23;20380;-95
2023/05/23 07:15:55;;;;;;;43.77;30.70;;;;;;;;;;6118355;23;20781;-95
2023/05/23 07:18:27;;;;;;;40.63;29.43;;;;;;;;;;6141467;23;20404;-96
2023/05/23 07:21:02;;;;;;;34.20;26.60;;;;;;;;;;6116450;23;21014;-95
2023/05/23 07:23:38;;;;;;;34.57;26.23;;;;;;;;;;6140038;23;20392;-94
2023/05/23 07:29:40;;;;;;;30.73;26.10;;;;;;;;;;6049510;23;20384;-94
2023/05/23 07:32:08;;;;;;;37.43;27.50;;;;;;;;;;6024928;23;20396;-96
2023/05/23 07:34:35;;;;;;;37.60;28.03;;;;;;;;;;6024773;23;20392;-95
2023/05/23 07:37:01;;;;;;;39.33;29.77;;;;;;;;;;6023104;23;20397;-95
2023/05/23 07:39:27;;;;;;;40.70;30.70;;;;;;;;;;5940968;24;20426;-95
2023/05/23 07:41:53;;;;;;;44.40;32.40;;;;;;;;;;5977493;23;20441;-94
2023/05/23 07:44:19;;;;;;;42.30;32.57;;;;;;;;;;6020182;23;20400;-94
2023/05/23 07:47:43;;;;;;;;;;;;;;;;;;;;;
2023/05/23 07:53:16;;;;;;;32.27;25.53;;;;;;;;;;5944133;24;20379;-95
2023/05/23 07:58:38;;;;;;;32.10;23.40;;;;;;;;;;5945224;24;20386;-95
2023/05/23 08:01:28;;;;;;;30.70;23.80;;;;;;;;;;5940668;24;20410;-95
2023/05/23 08:04:31;;;;;;;29.70;22.23;;;;;;;;;;5961828;23;21149;-95
2023/05/23 08:07:42;;;;;;;37.90;23.50;;;;;;;;;;5919871;24;20492;-95
2023/05/23 08:13:25;;;;;;;33.50;22.73;;;;;;;;;;6065523;23;20395;-96
2023/05/23 09:02:53;;;;;;;23.90;17.73;;;;;;;;;;6178779;23;20434;-94
2023/05/23 09:54:39;;;;;;;14.03;12.30;;;;;;;;;;6198065;23;20422;-93
2023/05/23 09:57:11;;;;;;;18.30;13.53;;;;;;;;;;6146240;23;20626;-94
2023/05/23 09:59:41;;;;;;;16.50;13.00;;;;;;;;;;6168030;23;20912;-95
2023/05/23 10:02:07;;;;;;;16.30;12.50;;;;;;;;;;6144871;23;20522;-95
2023/05/23 10:04:34;;;;;;;14.70;11.23;;;;;;;;;;6144021;23;20388;-95
2023/05/23 10:07:12;;;;;;;14.03;12.13;;;;;;;;;;6144154;23;20400;-94
2023/05/23 10:09:41;;;;;;;16.20;12.00;;;;;;;;;;6104452;23;20588;-93
2023/05/23 10:25:12;;;;;;;14.13;9.20;;;;;;;;;;6196558;23;20411;-96
2023/05/23 10:27:38;;;;;;;12.50;9.70;;;;;;;;;;6150300;23;20392;-93
2023/05/23 10:48:32;;;;;;;12.10;10.50;;;;;;;;;;6189769;23;20474;-91
2023/05/23 10:51:08;;;;;;;12.43;10.67;;;;;;;;;;6135783;23;20376;-91
2023/05/23 10:53:35;;;;;;;12.33;11.00;;;;;;;;;;6137439;23;20375;-89
2023/05/23 10:56:01;;;;;;;12.07;9.83;;;;;;;;;;6136513;23;20426;-89
2023/05/23 10:58:29;;;;;;;14.37;12.87;;;;;;;;;;6134045;23;20401;-90
2023/05/23 11:00:55;;;;;;;13.17;10.20;;;;;;;;;;6134951;23;20428;-89
2023/05/23 11:03:40;;;;;;;14.20;11.00;;;;;;;;;;6137933;23;20387;-90
2023/05/23 11:06:06;;;;;;;10.50;9.40;;;;;;;;;;6161707;23;20371;-94
2023/05/23 11:08:41;;;;;;;13.13;11.70;;;;;;;;;;6137285;23;20434;-91
2023/05/23 11:11:07;;;;;;;13.63;10.23;;;;;;;;;;6135677;23;20394;-91
2023/05/23 11:13:51;;;;;;;11.23;9.50;;;;;;;;;;6139562;23;20400;-91
2023/05/23 11:16:30;;;;;;;12.37;11.17;;;;;;;;;;6186069;23;20364;-90
2023/05/23 11:19:15;;;;;;;10.77;8.93;;;;;;;;;;6159946;23;20387;-91
2023/05/23 11:21:41;;;;;;;10.37;9.00;;;;;;;;;;6160060;23;20490;-93
2023/05/23 11:24:08;;;;;;;10.07;8.80;;;;;;;;;;6136010;23;20395;-93
2023/05/23 11:29:10;;;;;;;10.43;8.53;;;;;;;;;;6187838;23;20450;-89
2023/05/23 11:31:40;;;;;;;11.70;10.20;;;;;;;;;;6137444;23;20407;-90
2023/05/23 11:34:07;;;;;;;10.70;9.60;;;;;;;;;;6163495;23;20359;-91
2023/05/23 11:36:33;;;;;;;12.20;10.67;;;;;;;;;;6138632;23;20439;-92
2023/05/23 11:39:02;;;;;;;11.90;10.47;;;;;;;;;;6136373;23;20384;-89
2023/05/23 11:41:28;;;;;;;10.73;9.63;;;;;;;;;;6135446;23;20428;-92
2023/05/23 11:43:54;;;;;;;13.03;10.83;;;;;;;;;;6136382;23;20419;-90
2023/05/23 11:46:20;;;;;;;12.00;10.17;;;;;;;;;;6138391;23;20376;-91
2023/05/23 11:48:46;;;;;;;14.10;12.60;;;;;;;;;;6141654;23;20414;-94
2023/05/23 11:51:12;;;;;;;11.37;10.13;;;;;;;;;;6138863;23;20840;-92
2023/05/23 11:53:38;;;;;;;17.10;11.17;;;;;;;;;;6139095;23;20391;-91
2023/05/23 11:56:04;;;;;;;13.77;10.97;;;;;;;;;;6139377;23;20778;-92
2023/05/23 11:58:34;;;;;;;11.93;10.10;;;;;;;;;;6163144;23;20375;-92
2023/05/23 12:01:03;;;;;;;11.27;9.93;;;;;;;;;;6140588;23;20922;-94
2023/05/23 12:03:30;;;;;;;10.07;9.07;;;;;;;;;;6137890;23;20514;-93
2023/05/23 12:05:56;;;;;;;14.03;10.37;;;;;;;;;;6139121;23;20399;-92
2023/05/23 12:08:22;;;;;;;11.93;9.23;;;;;;;;;;6136885;23;20478;-92
2023/05/23 12:10:57;;;;;;;9.83;8.37;;;;;;;;;;6139456;23;20396;-94
2023/05/23 12:13:24;;;;;;;9.53;8.53;;;;;;;;;;6137497;23;20392;-93
2023/05/23 12:15:53;;;;;;;10.80;9.20;;;;;;;;;;6139994;23;20887;-93
2023/05/23 12:18:37;;;;;;;11.23;9.37;;;;;;;;;;6139291;23;20855;-96
2023/05/23 12:21:04;;;;;;;10.53;8.00;;;;;;;;;;6144541;23;20498;-95
2023/05/23 12:23:30;;;;;;;12.33;8.93;;;;;;;;;;6137895;23;20384;-95
2023/05/23 12:25:56;;;;;;;11.30;8.33;;;;;;;;;;6140780;23;20902;-93
2023/05/23 12:28:35;;;;;;;8.47;7.57;;;;;;;;;;6137860;23;20400;-92
2023/05/23 12:31:13;;;;;;;9.20;8.20;;;;;;;;;;6197767;23;20429;-92
2023/05/23 12:33:40;;;;;;;9.50;8.50;;;;;;;;;;6162621;23;20376;-92
2023/05/23 12:36:06;;;;;;;10.90;9.13;;;;;;;;;;6140859;23;20380;-91
2023/05/23 12:38:36;;;;;;;8.40;7.60;;;;;;;;;;6136388;23;20388;-90
2023/05/23 12:41:08;;;;;;;8.70;7.63;;;;;;;;;;6142608;23;20515;-91
2023/05/23 12:43:37;;;;;;;9.17;7.97;;;;;;;;;;6162946;23;20376;-91
2023/05/23 12:46:03;;;;;;;8.63;7.70;;;;;;;;;;6138413;23;20375;-91
2023/05/23 12:48:29;;;;;;;7.70;6.83;;;;;;;;;;6139743;23;20387;-91
2023/05/23 12:50:55;;;;;;;8.20;7.40;;;;;;;;;;6140157;23;20388;-91
2023/05/23 12:53:21;;;;;;;7.30;6.60;;;;;;;;;;6136580;23;20454;-89
2023/05/23 12:55:47;;;;;;;7.13;6.40;;;;;;;;;;6141389;23;20403;-94
2023/05/23 12:58:13;;;;;;;8.10;6.53;;;;;;;;;;6162481;23;20748;-92
2023/05/23 13:00:39;;;;;;;7.10;6.40;;;;;;;;;;6141361;23;20384;-92
2023/05/23 13:03:05;;;;;;;8.43;7.63;;;;;;;;;;6140902;23;20907;-93
2023/05/23 13:05:31;;;;;;;8.23;7.13;;;;;;;;;;6141161;23;20399;-93
2023/05/23 13:07:58;;;;;;;7.57;6.70;;;;;;;;;;6139436;23;20380;-92
2023/05/23 13:10:24;;;;;;;7.30;5.63;;;;;;;;;;6139469;23;20476;-91
2023/05/23 13:12:50;;;;;;;6.77;5.20;;;;;;;;;;6141081;23;20432;-93
2023/05/23 13:15:16;;;;;;;8.37;6.30;;;;;;;;;;6141719;23;20380;-93
2023/05/23 13:17:42;;;;;;;6.53;5.80;;;;;;;;;;6139833;23;20387;-93
2023/05/23 13:20:10;;;;;;;7.40;6.70;;;;;;;;;;6139728;23;20447;-91
2023/05/23 13:22:36;;;;;;;6.43;5.83;;;;;;;;;;6138115;23;21178;-93
2023/05/23 13:25:02;;;;;;;7.03;5.80;;;;;;;;;;6140649;23;20396;-93
2023/05/23 13:27:28;;;;;;;7.50;6.10;;;;;;;;;;6141387;23;20371;-92
2023/05/23 13:29:54;;;;;;;6.50;5.67;;;;;;;;;;6141461;23;20422;-91
2023/05/23 13:32:21;;;;;;;6.63;6.03;;;;;;;;;;6167178;23;20351;-91
2023/05/23 13:34:46;;;;;;;7.37;6.00;;;;;;;;;;6141244;23;20688;-92
2023/05/23 13:37:12;;;;;;;6.73;6.10;;;;;;;;;;6141802;23;20430;-92
2023/05/23 13:39:38;;;;;;;6.60;5.90;;;;;;;;;;6140463;23;20380;-93
2023/05/23 13:42:06;;;;;;;11.10;6.97;;;;;;;;;;6139322;23;20455;-92
2023/05/23 13:44:32;;;;;;;7.00;6.30;;;;;;;;;;6140069;23;20396;-92
2023/05/23 13:47:00;;;;;;;7.40;6.70;;;;;;;;;;6141272;23;20365;-91
2023/05/23 13:49:26;;;;;;;6.23;5.63;;;;;;;;;;6140287;23;20400;-92
2023/05/23 13:51:52;;;;;;;6.20;5.50;;;;;;;;;;6142131;23;20383;-90
2023/05/23 13:54:18;;;;;;;6.63;5.93;;;;;;;;;;6140245;23;20372;-92
2023/05/23 13:56:44;;;;;;;7.07;6.17;;;;;;;;;;6141397;23;20738;-92
2023/05/23 13:59:10;;;;;;;6.47;5.50;;;;;;;;;;6140039;23;20404;-93
2023/05/23 14:01:36;;;;;;;6.83;5.47;;;;;;;;;;6142965;23;20882;-93
2023/05/23 14:04:02;;;;;;;7.30;6.43;;;;;;;;;;6140177;23;20368;-91
2023/05/23 14:06:28;;;;;;;7.33;6.20;;;;;;;;;;6136549;23;20743;-92
2023/05/23 14:08:55;;;;;;;6.10;5.40;;;;;;;;;;6138450;23;20380;-92
2023/05/23 14:11:21;;;;;;;6.67;5.97;;;;;;;;;;6137868;23;21107;-91
2023/05/23 14:13:47;;;;;;;9.47;5.43;;;;;;;;;;6141317;23;20471;-92
2023/05/23 14:16:13;;;;;;;7.27;6.57;;;;;;;;;;6139451;23;20864;-92
2023/05/23 14:18:39;;;;;;;6.07;5.30;;;;;;;;;;6140215;23;20428;-92
2023/05/23 14:21:05;;;;;;;6.30;5.20;;;;;;;;;;6141769;23;20426;-92
2023/05/23 14:23:31;;;;;;;8.20;6.30;;;;;;;;;;6138446;23;20376;-92
2023/05/23 14:25:57;;;;;;;6.33;5.70;;;;;;;;;;6139436;23;20487;-92
2023/05/23 14:28:23;;;;;;;6.90;5.80;;;;;;;;;;6137979;23;20438;-92
2023/05/23 14:30:49;;;;;;;6.30;5.60;;;;;;;;;;6142756;23;20591;-92
2023/05/23 14:33:15;;;;;;;5.70;5.13;;;;;;;;;;6139622;23;20388;-92
2023/05/23 14:35:41;;;;;;;7.13;6.43;;;;;;;;;;6139409;23;20440;-92
2023/05/23 14:38:07;;;;;;;15.73;6.80;;;;;;;;;;6137253;23;21037;-92
2023/05/23 14:40:33;;;;;;;8.07;6.73;;;;;;;;;;6137577;23;20404;-92
2023/05/23 14:42:59;;;;;;;8.03;7.23;;;;;;;;;;6136439;23;20727;-92
2023/05/23 14:45:26;;;;;;;6.03;5.43;;;;;;;;;;6139279;23;20387;-92
2023/05/23 14:47:52;;;;;;;7.10;6.40;;;;;;;;;;6139064;23;20408;-92
2023/05/23 14:50:18;;;;;;;7.60;5.93;;;;;;;;;;6164084;23;20430;-92
2023/05/23 14:52:44;;;;;;;6.50;5.90;;;;;;;;;;6140381;23;20395;-94
2023/05/23 14:55:11;;;;;;;6.40;5.80;;;;;;;;;;6142210;23;20384;-93
2023/05/23 14:57:37;;;;;;;6.80;6.13;;;;;;;;;;6138997;23;20456;-92
2023/05/23 15:00:04;;;;;;;6.00;5.40;;;;;;;;;;6141319;23;20395;-93
2023/05/23 15:02:30;;;;;;;5.50;5.00;;;;;;;;;;6165851;23;20451;-91
2023/05/23 15:04:56;;;;;;;5.50;5.07;;;;;;;;;;6138202;23;20410;-92
2023/05/23 15:07:23;;;;;;;9.07;5.60;;;;;;;;;;6140788;23;20470;-93
2023/05/23 15:09:49;;;;;;;5.53;5.03;;;;;;;;;;6136687;23;20440;-93
2023/05/23 15:12:15;;;;;;;6.10;5.50;;;;;;;;;;6139634;23;20388;-91
2023/05/23 15:14:42;;;;;;;5.37;4.87;;;;;;;;;;6138265;23;20383;-92
2023/05/23 15:17:08;;;;;;;5.50;5.00;;;;;;;;;;6165934;23;20423;-92
2023/05/23 15:19:38;;;;;;;5.03;4.60;;;;;;;;;;6145399;23;20407;-91
2023/05/23 15:22:04;;;;;;;5.30;4.80;;;;;;;;;;6142135;23;20883;-91
2023/05/23 15:24:30;;;;;;;4.80;4.30;;;;;;;;;;6142635;23;20364;-92
2023/05/23 15:26:57;;;;;;;5.40;4.67;;;;;;;;;;6144656;23;20368;-93
2023/05/23 15:29:24;;;;;;;5.40;3.80;;;;;;;;;;6142671;23;20486;-94
2023/05/23 15:31:50;;;;;;;6.43;5.40;;;;;;;;;;6142529;23;20723;-92
2023/05/23 15:34:16;;;;;;;7.40;4.87;;;;;;;;;;6142125;23;20384;-93
2023/05/23 15:36:43;;;;;;;7.50;5.77;;;;;;;;;;6146289;23;20539;-92
2023/05/23 15:39:11;;;;;;;6.27;5.57;;;;;;;;;;6141407;23;20380;-92
2023/05/23 15:41:37;;;;;;;6.73;5.57;;;;;;;;;;6141849;23;20420;-92
2023/05/23 15:44:04;;;;;;;7.43;6.13;;;;;;;;;;6144420;23;20382;-91
2023/05/23 15:46:30;;;;;;;7.67;6.57;;;;;;;;;;6165764;23;20472;-91
2023/05/23 15:48:58;;;;;;;8.57;6.63;;;;;;;;;;6143951;23;20434;-92
2023/05/23 15:51:24;;;;;;;7.80;6.33;;;;;;;;;;6141415;23;20414;-91
2023/05/23 15:53:50;;;;;;;7.17;5.57;;;;;;;;;;6145418;23;20388;-91
2023/05/23 15:56:16;;;;;;;7.33;6.47;;;;;;;;;;6140243;23;20378;-92
2023/05/23 15:58:42;;;;;;;6.20;5.70;;;;;;;;;;6144318;23;20368;-92
2023/05/23 16:01:08;;;;;;;7.03;6.13;;;;;;;;;;6165196;23;20411;-90
2023/05/23 16:03:34;;;;;;;5.60;5.00;;;;;;;;;;6164232;23;20398;-92
2023/05/23 16:06:00;;;;;;;5.23;4.73;;;;;;;;;;6138875;23;20399;-92
2023/05/23 16:08:26;;;;;;;7.40;6.33;;;;;;;;;;6147136;23;20450;-92
2023/05/23 16:10:52;;;;;;;8.53;6.07;;;;;;;;;;6141461;23;20372;-92
2023/05/23 16:13:18;;;;;;;9.60;7.80;;;;;;;;;;6143906;23;20479;-92
2023/05/23 16:15:44;;;;;;;7.30;6.40;;;;;;;;;;6141002;23;20749;-93
2023/05/23 16:18:10;;;;;;;8.33;6.63;;;;;;;;;;6141303;23;20753;-95
2023/05/23 16:20:36;;;;;;;9.00;8.10;;;;;;;;;;6139755;23;20486;-91
2023/05/23 16:23:02;;;;;;;12.50;9.33;;;;;;;;;;6143742;23;20423;-91
2023/05/23 16:25:29;;;;;;;9.53;7.17;;;;;;;;;;6141638;23;20452;-90
2023/05/23 16:27:55;;;;;;;7.40;6.60;;;;;;;;;;6142389;23;20487;-92
2023/05/23 16:30:21;;;;;;;7.33;6.63;;;;;;;;;;6142102;23;20886;-92
2023/05/23 16:32:47;;;;;;;9.50;8.00;;;;;;;;;;6145425;23;20958;-92
2023/05/23 16:35:13;;;;;;;7.93;6.93;;;;;;;;;;6145019;23;20380;-93
2023/05/23 16:37:40;;;;;;;7.30;6.60;;;;;;;;;;6145190;23;20432;-92
2023/05/23 16:40:06;;;;;;;10.83;7.33;;;;;;;;;;6168226;23;20399;-92
2023/05/23 16:42:32;;;;;;;10.40;7.03;;;;;;;;;;6165698;23;20431;-92
2023/05/23 16:44:58;;;;;;;9.97;7.73;;;;;;;;;;6166716;23;20379;-93
2023/05/23 16:47:24;;;;;;;8.87;7.60;;;;;;;;;;6164771;23;20471;-94
2023/05/23 16:49:50;;;;;;;7.50;6.70;;;;;;;;;;6164133;23;20418;-91
2023/05/23 16:52:17;;;;;;;10.90;7.80;;;;;;;;;;6168702;23;20383;-92
2023/05/23 16:54:43;;;;;;;10.07;8.90;;;;;;;;;;6170172;23;20384;-93
2023/05/23 16:57:09;;;;;;;11.80;10.70;;;;;;;;;;6167850;23;20404;-94
2023/05/23 16:59:35;;;;;;;10.37;9.20;;;;;;;;;;6145077;23;20384;-92
2023/05/23 17:02:01;;;;;;;15.80;8.50;;;;;;;;;;6168626;23;20415;-92